Terminal Aerodrome Forecast
Issued by NWS Blacksburg, VA

Current Version | Previous Version | Graphics & Text | Print | Product List | Glossary On
Versions: 1 2 3 4 5 6 7 8 9 10 11 12 13 14 15 16 17 18 19 20 21 22 23 24 25 26 27 28 29 30 31 32 33 34
304
FTUS41 KRNK 222347
TAFBLF
TAF
KBLF 222347Z 2300/2324 01006KT 5SM -RA OVC003
     FM230400 05008KT 3SM -RA BR OVC002
      TEMPO 2310/2314 1SM RA BR=

USA.gov is the U.S. government's official web portal to all federal, state and local government web resources and services.